createdAt,value
2023-02-06T00:01:03.755Z,10.82
2023-02-06T00:03:49.741Z,9.45
2023-02-06T00:06:35.692Z,9.55
2023-02-06T00:09:21.768Z,10.00
2023-02-06T00:12:07.702Z,13.80
2023-02-06T00:14:55.340Z,13.02
2023-02-06T00:17:40.965Z,9.63
2023-02-06T00:20:26.972Z,10.52
2023-02-06T00:23:12.692Z,11.57
2023-02-06T00:25:59.556Z,16.42
2023-02-06T00:28:48.789Z,13.23
2023-02-06T00:31:34.708Z,10.77
2023-02-06T00:34:20.304Z,8.93
2023-02-06T00:37:06.202Z,9.45
2023-02-06T00:39:51.732Z,15.60
2023-02-06T00:42:37.482Z,10.07
2023-02-06T00:45:23.217Z,9.60
2023-02-06T00:48:16.476Z,8.40
2023-02-06T00:53:50.992Z,10.73
2023-02-06T00:56:38.523Z,13.90
2023-02-06T00:59:24.281Z,12.82
2023-02-06T01:02:10.432Z,13.13
2023-02-06T01:04:56.485Z,12.38
2023-02-06T01:07:42.252Z,11.77
2023-02-06T01:10:28.114Z,10.40
2023-02-06T01:13:14.876Z,11.45
2023-02-06T01:16:00.428Z,10.90
2023-02-06T01:18:49.500Z,12.75
2023-02-06T01:21:35.428Z,11.25
2023-02-06T01:24:21.167Z,13.13
2023-02-06T01:27:06.924Z,13.63
2023-02-06T01:29:52.687Z,11.43
2023-02-06T01:32:39.907Z,10.93
2023-02-06T01:35:26.847Z,11.57
2023-02-06T01:38:12.423Z,11.70
2023-02-06T01:40:59.505Z,15.60
2023-02-06T01:43:48.008Z,12.48
2023-02-06T01:46:34.100Z,12.10
2023-02-06T01:49:27.851Z,15.10
2023-02-06T01:52:18.944Z,13.80
2023-02-06T01:55:05.647Z,13.60
2023-02-06T01:57:52.363Z,17.17
2023-02-06T02:00:41.720Z,18.10
2023-02-06T02:03:29.258Z,9.98
2023-02-06T02:06:17.979Z,11.80
2023-02-06T02:09:04.456Z,11.18
2023-02-06T02:11:50.689Z,10.63
2023-02-06T02:14:37.497Z,10.57
2023-02-06T02:17:56.708Z,12.82
2023-02-06T02:21:20.243Z,15.43
2023-02-06T02:24:11.518Z,14.75
2023-02-06T02:27:19.793Z,10.73
2023-02-06T02:30:14.496Z,14.30
2023-02-06T02:33:22.771Z,11.13
2023-02-06T02:36:34.459Z,12.13
2023-02-06T02:39:37.560Z,12.15
2023-02-06T02:42:33.895Z,10.95
2023-02-06T02:45:26.191Z,11.80
2023-02-06T02:48:15.882Z,9.57
2023-02-06T02:51:02.037Z,12.90
2023-02-06T02:53:48.333Z,12.23
2023-02-06T02:56:35.130Z,11.32
2023-02-06T02:59:37.374Z,12.13
2023-02-06T03:02:26.188Z,11.25
2023-02-06T03:05:15.377Z,12.25
2023-02-06T03:08:14.771Z,13.32
2023-02-06T03:11:03.755Z,11.25
2023-02-06T03:14:14.784Z,10.80
2023-02-06T03:17:07.376Z,11.27
2023-02-06T03:19:56.964Z,14.98
2023-02-06T03:22:44.729Z,12.32
2023-02-06T03:25:34.640Z,13.65
2023-02-06T03:28:26.746Z,9.93
2023-02-06T03:31:17.236Z,13.15
2023-02-06T03:34:12.591Z,13.27
2023-02-06T03:36:58.225Z,11.18
2023-02-06T03:39:44.058Z,12.63
2023-02-06T03:42:30.801Z,11.57
2023-02-06T03:45:36.308Z,13.40
2023-02-06T03:48:30.556Z,11.40
2023-02-06T03:51:26.319Z,10.57
2023-02-06T03:54:14.720Z,12.95
2023-02-06T03:57:03.205Z,14.48
2023-02-06T03:59:49.236Z,14.73
2023-02-06T04:02:35.619Z,14.90
2023-02-06T04:05:21.566Z,14.30
2023-02-06T04:08:07.607Z,11.68
2023-02-06T04:10:53.277Z,10.75
2023-02-06T04:13:40.067Z,12.68
2023-02-06T04:16:25.818Z,10.65
2023-02-06T04:19:11.707Z,12.93
2023-02-06T04:21:57.261Z,13.90
2023-02-06T04:24:44.164Z,12.75
2023-02-06T04:27:30.126Z,14.32
2023-02-06T04:30:19.536Z,11.02
2023-02-06T04:33:05.413Z,16.58
2023-02-06T04:35:51.180Z,10.88
2023-02-06T04:38:36.723Z,16.17
2023-02-06T04:41:22.570Z,14.93
2023-02-06T04:44:08.470Z,13.85
2023-02-06T04:46:54.362Z,12.10
2023-02-06T04:49:40.056Z,14.65
2023-02-06T04:52:25.790Z,11.43
2023-02-06T04:55:11.708Z,14.27
2023-02-06T04:58:00.298Z,10.18
2023-02-06T05:00:45.948Z,11.20
2023-02-06T05:03:33.137Z,17.15
2023-02-06T05:06:18.889Z,15.35
2023-02-06T05:09:05.240Z,11.55
2023-02-06T05:11:52.169Z,15.57
2023-02-06T05:14:37.903Z,11.55
2023-02-06T05:17:23.583Z,13.57
2023-02-06T05:20:09.688Z,14.48
2023-02-06T05:22:55.586Z,13.05
2023-02-06T05:25:42.313Z,12.23
2023-02-06T05:28:29.987Z,12.15
2023-02-06T05:31:19.886Z,13.35
2023-02-06T05:34:06.228Z,13.75
2023-02-06T05:36:51.980Z,12.00
2023-02-06T05:39:37.871Z,11.55
2023-02-06T05:42:23.357Z,15.35
2023-02-06T05:45:09.380Z,14.88
2023-02-06T05:47:55.074Z,12.82
2023-02-06T05:50:43.078Z,11.07
2023-02-06T05:53:33.593Z,11.13
2023-02-06T05:56:19.390Z,10.43
2023-02-06T05:59:04.958Z,11.65
2023-02-06T06:01:52.694Z,12.15
2023-02-06T06:04:38.161Z,13.40
2023-02-06T06:07:23.728Z,20.35
2023-02-06T06:10:10.028Z,13.05
2023-02-06T06:12:57.138Z,16.17
2023-02-06T06:15:43.432Z,22.45
2023-02-06T06:18:29.630Z,19.88
2023-02-06T06:21:16.346Z,16.85
2023-02-06T06:24:03.059Z,14.32
2023-02-06T06:26:48.759Z,14.32
2023-02-06T06:29:38.300Z,15.95
2023-02-06T06:32:25.805Z,15.20
2023-02-06T06:35:12.365Z,15.13
2023-02-06T06:38:07.540Z,15.55
2023-02-06T06:41:02.288Z,15.57
2023-02-06T06:43:49.582Z,13.15
2023-02-06T06:46:38.944Z,14.25
2023-02-06T06:49:24.617Z,15.52
2023-02-06T06:52:24.362Z,18.98
2023-02-06T06:55:14.673Z,12.75
2023-02-06T06:58:01.029Z,16.33
2023-02-06T07:00:47.190Z,14.43
2023-02-06T07:03:33.259Z,19.30
2023-02-06T07:06:19.201Z,17.05
2023-02-06T07:09:05.204Z,12.10
2023-02-06T07:11:51.359Z,12.68
2023-02-06T07:14:37.012Z,13.43
2023-02-06T07:17:22.813Z,15.00
2023-02-06T07:20:09.098Z,15.95
2023-02-06T07:22:55.041Z,12.02
2023-02-06T07:25:40.774Z,22.48
2023-02-06T07:28:26.365Z,14.73
2023-02-06T07:31:13.254Z,16.45
2023-02-06T07:34:00.216Z,15.55
2023-02-06T07:36:46.517Z,11.73
2023-02-06T07:39:32.661Z,11.60
2023-02-06T07:42:20.759Z,12.55
2023-02-06T07:45:17.213Z,17.80
2023-02-06T07:48:06.867Z,19.88
2023-02-06T07:50:53.102Z,10.50
2023-02-06T07:53:38.964Z,16.88
2023-02-06T07:56:25.455Z,15.13
2023-02-06T07:59:11.574Z,11.13
2023-02-06T08:01:57.679Z,16.08
2023-02-06T08:04:44.297Z,20.17
2023-02-06T08:07:30.124Z,10.52
2023-02-06T08:10:18.131Z,15.55
2023-02-06T08:13:04.147Z,12.88
2023-02-06T08:15:49.955Z,12.05
2023-02-06T08:18:36.742Z,12.75
2023-02-06T08:21:24.812Z,16.38
2023-02-06T08:24:11.914Z,19.90
2023-02-06T08:27:00.879Z,18.35
2023-02-06T08:29:46.904Z,16.63
2023-02-06T08:32:34.658Z,13.57
2023-02-06T08:35:20.312Z,12.15
2023-02-06T08:38:06.144Z,13.60
2023-02-06T08:40:51.831Z,62.35
2023-02-06T08:43:37.608Z,24.10
2023-02-06T08:46:25.067Z,34.72
2023-02-06T08:49:19.857Z,18.65
2023-02-06T08:52:06.076Z,13.23
2023-02-06T08:54:53.028Z,11.73
2023-02-06T08:57:38.914Z,22.30
2023-02-06T09:00:24.567Z,43.63
2023-02-06T09:03:11.244Z,18.38
2023-02-06T09:06:09.358Z,15.60
2023-02-06T09:08:57.176Z,13.32
2023-02-06T09:11:43.646Z,13.00
2023-02-06T09:14:30.047Z,13.45
2023-02-06T09:17:16.036Z,14.35
2023-02-06T09:20:02.232Z,16.73
2023-02-06T09:22:48.510Z,18.73
2023-02-06T09:25:34.420Z,11.80
2023-02-06T09:28:20.784Z,17.95
2023-02-06T09:31:07.764Z,23.13
2023-02-06T09:33:53.577Z,17.85
2023-02-06T09:36:40.336Z,22.45
2023-02-06T09:39:26.339Z,15.82
2023-02-06T09:42:27.516Z,10.85
2023-02-06T09:45:19.265Z,18.92
2023-02-06T09:48:19.781Z,14.48
2023-02-06T09:51:05.821Z,29.67
2023-02-06T09:54:05.695Z,10.00
2023-02-06T09:57:15.532Z,13.30
2023-02-06T10:00:08.727Z,20.05
2023-02-06T10:03:25.755Z,12.88
2023-02-06T10:06:22.364Z,11.23
2023-02-06T10:09:10.986Z,50.08
2023-02-06T10:12:01.313Z,22.77
2023-02-06T10:15:00.212Z,16.50
2023-02-06T10:18:17.379Z,15.60
2023-02-06T10:21:28.218Z,18.88
2023-02-06T10:24:24.955Z,27.45
2023-02-06T10:27:13.089Z,16.35
2023-02-06T10:30:00.714Z,27.85
2023-02-06T10:32:56.920Z,14.95
2023-02-06T10:36:07.284Z,19.55
2023-02-06T10:39:06.126Z,19.65
2023-02-06T10:42:47.077Z,12.02
2023-02-06T10:45:36.732Z,10.07
2023-02-06T10:48:34.183Z,13.60
2023-02-06T10:51:28.396Z,15.05
2023-02-06T10:54:31.907Z,12.10
2023-02-06T10:57:21.664Z,20.17
2023-02-06T11:00:24.329Z,14.88
2023-02-06T11:03:16.675Z,17.52
2023-02-06T11:06:03.170Z,16.85
2023-02-06T11:08:49.291Z,13.50
2023-02-06T11:11:41.723Z,13.60
2023-02-06T11:14:32.087Z,21.92
2023-02-06T11:17:20.862Z,25.23
2023-02-06T11:20:36.078Z,17.38
2023-02-06T11:23:31.529Z,11.52
2023-02-06T11:26:19.603Z,16.10
2023-02-06T11:29:28.189Z,11.13
2023-02-06T11:32:36.150Z,11.05
2023-02-06T11:35:32.648Z,22.52
2023-02-06T11:38:20.690Z,10.48
2023-02-06T11:41:17.569Z,18.70
2023-02-06T11:44:06.718Z,23.85
2023-02-06T11:46:53.009Z,14.77
2023-02-06T11:49:38.992Z,25.77
2023-02-06T11:52:32.990Z,25.83
2023-02-06T11:55:39.712Z,23.38
2023-02-06T11:58:27.326Z,15.60
2023-02-06T12:01:21.758Z,13.93
2023-02-06T12:04:23.584Z,17.05
2023-02-06T12:07:21.496Z,21.85
2023-02-06T12:10:14.286Z,17.15
2023-02-06T12:13:16.594Z,12.73
2023-02-06T12:16:04.512Z,10.93
2023-02-06T12:18:54.202Z,10.77
2023-02-06T12:21:50.902Z,16.17
2023-02-06T12:24:40.200Z,14.60
2023-02-06T12:27:33.187Z,12.27
2023-02-06T12:30:42.199Z,14.18
2023-02-06T12:33:36.265Z,10.75
2023-02-06T12:36:31.360Z,17.58
2023-02-06T12:39:20.383Z,15.35
2023-02-06T12:42:29.450Z,19.70
2023-02-06T12:45:18.089Z,13.20
2023-02-06T12:48:13.118Z,13.95
2023-02-06T12:51:14.996Z,16.75
2023-02-06T12:54:15.610Z,17.33
2023-02-06T12:57:27.127Z,11.68
2023-02-06T13:00:33.676Z,35.30
2023-02-06T13:03:35.671Z,18.02
2023-02-06T13:06:30.442Z,18.40
2023-02-06T13:09:32.819Z,30.70
2023-02-06T13:12:24.075Z,35.80
2023-02-06T13:15:21.680Z,17.75
2023-02-06T13:18:41.807Z,31.95
2023-02-06T13:21:32.501Z,14.57
2023-02-06T13:24:19.607Z,12.38
2023-02-06T13:27:08.775Z,11.70
2023-02-06T13:29:54.494Z,17.23
2023-02-06T13:32:42.417Z,16.48
2023-02-06T13:35:30.429Z,40.03
2023-02-06T13:38:23.679Z,16.45
2023-02-06T13:41:15.453Z,18.70
2023-02-06T13:44:06.841Z,30.63
2023-02-06T13:47:06.421Z,17.73
2023-02-06T13:50:11.469Z,11.40
2023-02-06T13:53:21.696Z,20.17
2023-02-06T13:56:35.052Z,14.52
2023-02-06T13:59:36.079Z,17.80
2023-02-06T14:02:30.201Z,11.50
2023-02-06T14:08:22.841Z,8.05
2023-02-06T14:11:17.787Z,8.43
2023-02-06T14:14:28.346Z,10.13
2023-02-06T14:17:45.183Z,10.10
2023-02-06T14:21:08.671Z,15.88
2023-02-06T14:24:23.798Z,15.93
2023-02-06T14:27:09.712Z,13.43
2023-02-06T14:30:17.961Z,13.23
2023-02-06T14:33:26.695Z,16.33
2023-02-06T14:36:32.545Z,9.88
2023-02-06T14:39:39.671Z,21.13
2023-02-06T14:42:40.686Z,22.17
2023-02-06T14:45:41.658Z,10.70
2023-02-06T14:48:41.038Z,16.10
2023-02-06T14:51:29.639Z,17.10
2023-02-06T14:54:36.719Z,32.30
2023-02-06T14:57:26.734Z,30.73
2023-02-06T15:00:20.448Z,10.07
2023-02-06T15:03:26.858Z,13.70
2023-02-06T15:06:26.204Z,20.05
2023-02-06T15:09:36.110Z,13.70
2023-02-06T15:12:26.676Z,16.15
2023-02-06T15:15:22.293Z,20.83
2023-02-06T15:18:17.953Z,15.32
2023-02-06T15:21:06.146Z,11.98
2023-02-06T15:24:00.543Z,77.85
2023-02-06T15:27:01.137Z,48.60
2023-02-06T15:29:50.878Z,51.38
2023-02-06T15:32:39.885Z,18.38
2023-02-06T15:35:39.517Z,44.55
2023-02-06T15:38:27.041Z,36.28
2023-02-06T15:41:13.546Z,49.20
2023-02-06T15:44:28.279Z,47.25
2023-02-06T15:47:16.303Z,15.98
2023-02-06T15:50:10.607Z,25.73
2023-02-06T15:52:56.680Z,31.75
2023-02-06T15:55:51.704Z,14.68
2023-02-06T15:58:37.948Z,23.63
2023-02-06T16:01:26.040Z,18.02
2023-02-06T16:04:29.737Z,19.35
2023-02-06T16:07:28.232Z,20.15
2023-02-06T16:10:28.933Z,18.02
2023-02-06T16:13:21.702Z,17.77
2023-02-06T16:16:16.670Z,15.13
2023-02-06T16:19:02.452Z,16.55
2023-02-06T16:22:06.958Z,15.77
2023-02-06T16:24:55.418Z,20.65
2023-02-06T16:27:45.136Z,16.40
2023-02-06T16:30:33.976Z,18.70
2023-02-06T16:33:32.245Z,23.48
2023-02-06T16:36:20.171Z,22.73
2023-02-06T16:39:06.152Z,19.25
2023-02-06T16:41:53.459Z,14.15
2023-02-06T16:44:45.338Z,18.42
2023-02-06T16:47:32.019Z,20.90
2023-02-06T16:50:18.432Z,20.38
2023-02-06T16:53:04.436Z,18.02
2023-02-06T16:55:50.766Z,22.02
2023-02-06T16:58:36.482Z,20.27
2023-02-06T17:01:25.772Z,17.85
2023-02-06T17:04:11.432Z,17.02
2023-02-06T17:06:57.450Z,21.63
2023-02-06T17:09:44.473Z,17.52
2023-02-06T17:12:30.878Z,24.30
2023-02-06T17:15:18.951Z,27.58
2023-02-06T17:18:04.824Z,25.63
2023-02-06T17:21:59.173Z,33.53
2023-02-06T17:24:45.176Z,30.80
2023-02-06T17:27:31.407Z,27.38
2023-02-06T17:30:19.548Z,23.17
2023-02-06T17:33:06.365Z,28.15
2023-02-06T17:35:52.244Z,24.05
2023-02-06T17:38:39.068Z,19.02
2023-02-06T17:41:26.153Z,39.10
2023-02-06T17:44:12.307Z,88.43
2023-02-06T17:46:58.317Z,64.45
2023-02-06T17:49:44.160Z,55.88
2023-02-06T17:52:29.904Z,38.05
2023-02-06T17:55:16.847Z,68.22
2023-02-06T17:58:03.411Z,32.42
2023-02-06T18:00:49.936Z,24.30
2023-02-06T18:03:35.687Z,27.88
2023-02-06T18:06:21.832Z,25.60
2023-02-06T18:09:07.889Z,25.98
2023-02-06T18:11:53.759Z,23.98
2023-02-06T18:14:40.676Z,19.15
2023-02-06T18:17:26.895Z,20.00
2023-02-06T18:20:13.155Z,23.77
2023-02-06T18:22:59.218Z,18.38
2023-02-06T18:25:45.656Z,33.00
2023-02-06T18:28:36.014Z,23.88
2023-02-06T18:31:35.739Z,18.88
2023-02-06T18:34:22.004Z,17.98
2023-02-06T18:37:10.086Z,22.15
2023-02-06T18:39:56.438Z,21.05
2023-02-06T18:42:52.023Z,25.80
2023-02-06T18:45:38.988Z,42.00
2023-02-06T18:48:24.855Z,27.85
2023-02-06T18:51:10.612Z,21.40
2023-02-06T18:54:00.262Z,30.63
2023-02-06T18:56:46.940Z,28.63
2023-02-06T18:59:37.408Z,29.35
2023-02-06T19:02:23.202Z,29.02
2023-02-06T19:05:11.187Z,25.92
2023-02-06T19:07:57.524Z,28.48
2023-02-06T19:10:43.373Z,21.88
2023-02-06T19:13:29.423Z,19.77
2023-02-06T19:16:18.006Z,20.17
2023-02-06T19:19:04.664Z,28.55
2023-02-06T19:21:50.802Z,24.65
2023-02-06T19:24:36.793Z,20.00
2023-02-06T19:27:23.827Z,16.65
2023-02-06T19:30:10.126Z,19.67
2023-02-06T19:32:55.781Z,23.27
2023-02-06T19:35:41.689Z,30.02
2023-02-06T19:38:27.799Z,21.08
2023-02-06T19:41:18.438Z,16.10
2023-02-06T19:44:07.443Z,18.92
2023-02-06T19:46:53.545Z,22.80
2023-02-06T19:49:39.621Z,17.55
2023-02-06T19:52:26.225Z,24.50
2023-02-06T19:55:12.659Z,20.17
2023-02-06T19:57:58.597Z,15.93
2023-02-06T20:00:44.366Z,22.77
2023-02-06T20:03:30.220Z,21.30
2023-02-06T20:06:16.725Z,19.67
2023-02-06T20:09:04.463Z,19.13
2023-02-06T20:11:51.940Z,21.23
2023-02-06T20:14:37.633Z,19.33
2023-02-06T20:17:25.236Z,20.10
2023-02-06T20:20:12.463Z,16.58
2023-02-06T20:22:59.501Z,18.75
2023-02-06T20:25:45.281Z,26.13
2023-02-06T20:28:31.229Z,19.90
2023-02-06T20:31:18.033Z,24.10
2023-02-06T20:34:04.225Z,24.48
2023-02-06T20:36:50.919Z,24.65
2023-02-06T20:39:37.460Z,33.83
2023-02-06T20:42:24.816Z,37.00
2023-02-06T20:45:12.258Z,31.83
2023-02-06T20:48:00.271Z,27.17
2023-02-06T20:50:46.199Z,29.73
2023-02-06T20:53:32.277Z,29.70
2023-02-06T20:56:19.978Z,25.88
2023-02-06T20:59:06.428Z,29.27
2023-02-06T21:01:52.454Z,28.35
2023-02-06T21:04:38.417Z,21.52
2023-02-06T21:07:24.693Z,28.73
2023-02-06T21:10:10.905Z,25.35
2023-02-06T21:13:00.713Z,32.42
2023-02-06T21:15:54.680Z,36.65
2023-02-06T21:18:42.662Z,51.88
2023-02-06T21:21:29.028Z,67.10
2023-02-06T21:24:16.626Z,38.50
2023-02-06T21:27:02.483Z,38.30
2023-02-06T21:29:48.190Z,22.95
2023-02-06T21:32:34.346Z,19.73
2023-02-06T21:35:20.472Z,21.25
2023-02-06T21:38:07.869Z,22.17
2023-02-06T21:40:54.257Z,33.35
2023-02-06T21:43:40.604Z,20.58
2023-02-06T21:46:26.710Z,26.02
2023-02-06T21:49:13.430Z,24.60
2023-02-06T21:51:59.555Z,29.35
2023-02-06T21:54:45.505Z,28.05
2023-02-06T21:57:31.592Z,29.02
2023-02-06T22:00:17.319Z,20.98
2023-02-06T22:03:03.765Z,20.45
2023-02-06T22:05:49.925Z,17.02
2023-02-06T22:08:36.600Z,23.30
2023-02-06T22:11:28.457Z,18.35
2023-02-06T22:14:16.764Z,25.58
2023-02-06T22:17:02.505Z,33.10
2023-02-06T22:19:49.143Z,23.60
2023-02-06T22:22:37.319Z,24.02
2023-02-06T22:25:23.400Z,23.00
2023-02-06T22:28:09.274Z,16.17
2023-02-06T22:30:55.216Z,22.13
2023-02-06T22:33:43.691Z,23.50
2023-02-06T22:36:31.881Z,22.13
2023-02-06T22:39:17.792Z,19.27
2023-02-06T22:42:03.816Z,26.60
2023-02-06T22:44:49.817Z,30.50
2023-02-06T22:47:35.497Z,26.15
2023-02-06T22:50:22.315Z,25.77
2023-02-06T22:53:31.863Z,20.67
2023-02-06T22:56:37.121Z,22.83
2023-02-06T22:59:25.405Z,26.58
2023-02-06T23:02:12.497Z,16.50
2023-02-06T23:04:58.342Z,20.38
2023-02-06T23:07:44.008Z,28.42
2023-02-06T23:10:30.712Z,23.38
2023-02-06T23:13:16.524Z,20.05
2023-02-06T23:16:02.844Z,19.88
2023-02-06T23:18:49.020Z,21.80
2023-02-06T23:21:38.155Z,20.42
2023-02-06T23:24:24.799Z,20.15
2023-02-06T23:27:10.553Z,24.27
2023-02-06T23:29:56.602Z,26.88
2023-02-06T23:32:42.479Z,21.30
2023-02-06T23:35:29.268Z,18.33
2023-02-06T23:38:15.222Z,23.90
2023-02-06T23:41:12.424Z,20.83
2023-02-06T23:44:02.932Z,24.98
2023-02-06T23:46:48.613Z,26.92
2023-02-06T23:49:34.215Z,26.40
2023-02-06T23:52:19.927Z,16.80
2023-02-06T23:55:06.064Z,20.75
2023-02-06T23:57:52.248Z,23.08
